createdAt,value
2019-04-16T00:01:25.168Z,8.70
2019-04-16T00:03:58.784Z,8.60
2019-04-16T00:06:53.444Z,8.70
2019-04-16T00:09:42.758Z,8.60
2019-04-16T00:12:25.702Z,8.50
2019-04-16T00:14:54.990Z,8.40
2019-04-16T00:17:23.622Z,8.40
2019-04-16T00:19:52.393Z,8.40
2019-04-16T00:22:30.674Z,8.40
2019-04-16T00:24:59.181Z,8.30
2019-04-16T00:27:28.783Z,8.10
2019-04-16T00:29:58.140Z,8.00
2019-04-16T00:32:30.436Z,8.00
2019-04-16T00:34:59.452Z,7.90
2019-04-16T00:37:30.282Z,7.70
2019-04-16T00:39:58.718Z,7.70
2019-04-16T00:42:27.343Z,7.60
2019-04-16T00:44:55.740Z,7.60
2019-04-16T00:47:24.417Z,7.50
2019-04-16T00:49:57.549Z,7.50
2019-04-16T00:52:23.723Z,7.40
2019-04-16T00:54:52.359Z,7.40
2019-04-16T00:57:21.131Z,7.40
2019-04-16T00:59:54.875Z,7.30
2019-04-16T01:02:20.290Z,7.40
2019-04-16T01:04:48.930Z,7.40
2019-04-16T01:07:17.615Z,7.20
2019-04-16T01:09:46.330Z,7.10
2019-04-16T01:12:15.781Z,7.10
2019-04-16T01:14:44.532Z,7.00
2019-04-16T01:17:13.283Z,6.90
2019-04-16T01:19:41.952Z,6.80
2019-04-16T01:22:15.767Z,6.90
2019-04-16T01:24:41.807Z,6.90
2019-04-16T01:27:10.188Z,6.80
2019-04-16T01:29:39.205Z,6.80
2019-04-16T01:32:27.049Z,6.80
2019-04-16T01:35:12.262Z,6.70
2019-04-16T01:38:00.398Z,6.70
2019-04-16T01:40:47.324Z,6.60
2019-04-16T01:43:16.037Z,6.50
2019-04-16T01:45:45.061Z,6.60
2019-04-16T01:48:13.630Z,6.50
2019-04-16T01:50:43.731Z,6.50
2019-04-16T01:53:12.497Z,6.50
2019-04-16T01:55:42.589Z,6.50
2019-04-16T01:58:11.588Z,6.40
2019-04-16T02:00:40.422Z,6.40
2019-04-16T02:03:09.200Z,6.30
2019-04-16T02:05:37.569Z,6.30
2019-04-16T02:08:06.613Z,6.40
2019-04-16T02:10:38.330Z,6.30
2019-04-16T02:13:05.748Z,6.20
2019-04-16T02:15:34.532Z,6.20
2019-04-16T02:18:03.993Z,6.30
2019-04-16T02:20:32.871Z,6.20
2019-04-16T02:23:01.439Z,6.20
2019-04-16T02:25:29.888Z,6.10
2019-04-16T02:27:58.180Z,6.00
2019-04-16T02:30:26.618Z,6.10
2019-04-16T02:32:55.308Z,6.10
2019-04-16T02:35:23.566Z,6.10
2019-04-16T02:37:53.832Z,6.00
2019-04-16T02:40:22.461Z,6.00
2019-04-16T02:42:51.500Z,6.00
2019-04-16T02:45:23.709Z,6.00
2019-04-16T02:47:50.679Z,5.90
2019-04-16T02:50:30.228Z,5.90
2019-04-16T02:53:27.004Z,5.80
2019-04-16T02:56:17.365Z,5.80
2019-04-16T02:58:49.405Z,5.80
2019-04-16T03:01:51.925Z,5.80
2019-04-16T03:04:26.768Z,5.80
2019-04-16T03:06:54.447Z,5.80
2019-04-16T03:09:23.273Z,5.80
2019-04-16T03:11:53.693Z,5.70
2019-04-16T03:14:22.001Z,5.70
2019-04-16T03:17:03.685Z,5.70
2019-04-16T03:19:35.291Z,5.60
2019-04-16T03:22:03.899Z,5.70
2019-04-16T03:24:32.457Z,5.60
2019-04-16T03:27:04.607Z,5.60
2019-04-16T03:29:32.958Z,5.60
2019-04-16T03:32:02.525Z,5.50
2019-04-16T03:34:31.919Z,5.50
2019-04-16T03:37:01.863Z,5.50
2019-04-16T03:39:33.277Z,5.40
2019-04-16T03:42:02.248Z,5.40
2019-04-16T03:44:33.521Z,5.40
2019-04-16T03:47:01.792Z,5.40
2019-04-16T03:49:30.495Z,5.50
2019-04-16T03:51:59.495Z,5.50
2019-04-16T03:54:27.908Z,5.40
2019-04-16T03:56:56.196Z,5.30
2019-04-16T03:59:24.917Z,5.30
2019-04-16T04:01:53.603Z,5.30
2019-04-16T04:04:22.030Z,5.30
2019-04-16T04:06:50.993Z,5.40
2019-04-16T04:09:22.190Z,5.40
2019-04-16T04:11:50.178Z,5.40
2019-04-16T04:14:22.353Z,5.50
2019-04-16T04:16:48.857Z,5.50
2019-04-16T04:19:17.280Z,5.50
2019-04-16T04:21:45.629Z,5.50
2019-04-16T04:24:14.236Z,5.50
2019-04-16T04:26:42.633Z,5.50
2019-04-16T04:29:11.669Z,5.50
2019-04-16T04:31:40.224Z,5.40
2019-04-16T04:34:10.737Z,5.50
2019-04-16T04:36:39.523Z,5.50
2019-04-16T04:39:10.062Z,5.60
2019-04-16T04:41:40.542Z,5.60
2019-04-16T04:44:09.349Z,5.70
2019-04-16T04:46:37.677Z,5.70
2019-04-16T04:49:06.687Z,5.70
2019-04-16T04:51:36.414Z,5.80
2019-04-16T04:54:05.828Z,5.80
2019-04-16T04:56:34.279Z,5.70
2019-04-16T04:59:05.247Z,5.80
2019-04-16T05:01:33.821Z,5.80
2019-04-16T05:04:24.652Z,5.90
2019-04-16T05:06:57.265Z,5.90
2019-04-16T05:09:29.338Z,5.90
2019-04-16T05:11:57.757Z,5.90
2019-04-16T05:14:26.340Z,6.00
2019-04-16T05:16:54.707Z,6.00
2019-04-16T05:19:23.834Z,6.10
2019-04-16T05:21:52.507Z,6.20
2019-04-16T05:24:20.819Z,6.20
2019-04-16T05:26:49.529Z,6.30
2019-04-16T05:29:19.137Z,6.30
2019-04-16T05:31:47.861Z,6.30
2019-04-16T05:34:17.951Z,6.40
2019-04-16T05:36:48.161Z,6.40
2019-04-16T05:39:16.617Z,6.50
2019-04-16T05:41:47.135Z,6.50
2019-04-16T05:44:16.224Z,6.60
2019-04-16T05:46:46.715Z,6.60
2019-04-16T05:49:15.731Z,6.60
2019-04-16T05:51:44.600Z,6.70
2019-04-16T05:54:32.479Z,6.70
2019-04-16T05:57:01.785Z,6.80
2019-04-16T05:59:33.539Z,6.90
2019-04-16T06:02:08.641Z,7.00
2019-04-16T06:04:37.019Z,7.00
2019-04-16T06:07:07.679Z,7.10
2019-04-16T06:09:36.103Z,7.20
2019-04-16T06:12:05.984Z,7.20
2019-04-16T06:14:42.478Z,7.20
2019-04-16T06:17:32.163Z,7.30
2019-04-16T06:20:25.372Z,7.40
2019-04-16T06:23:14.391Z,7.40
2019-04-16T06:25:57.211Z,7.50
2019-04-16T06:28:45.698Z,7.50
2019-04-16T06:31:39.326Z,7.60
2019-04-16T06:34:26.856Z,7.60
2019-04-16T06:37:27.185Z,7.70
2019-04-16T06:40:09.574Z,7.70
2019-04-16T06:42:45.823Z,7.70
2019-04-16T06:45:24.514Z,7.80
2019-04-16T06:47:57.118Z,7.90
2019-04-16T06:50:44.054Z,8.00
2019-04-16T06:53:19.499Z,8.10
2019-04-16T06:56:15.861Z,8.10
2019-04-16T06:58:54.626Z,8.20
2019-04-16T07:01:48.790Z,8.20
2019-04-16T07:04:30.888Z,8.30
2019-04-16T07:07:21.588Z,8.40
2019-04-16T07:09:56.968Z,8.50
2019-04-16T07:12:29.194Z,8.60
2019-04-16T07:14:57.955Z,8.80
2019-04-16T07:17:32.899Z,9.00
2019-04-16T07:19:57.157Z,9.20
2019-04-16T07:22:25.513Z,9.40
2019-04-16T07:24:55.213Z,9.60
2019-04-16T07:27:24.944Z,9.80
2019-04-16T07:30:06.794Z,10.30
2019-04-16T07:32:44.629Z,11.60
2019-04-16T07:35:41.374Z,13.40
2019-04-16T07:38:24.412Z,15.20
2019-04-16T07:41:25.204Z,16.40
2019-04-16T07:44:27.034Z,17.50
2019-04-16T07:47:27.063Z,18.60
2019-04-16T07:50:02.944Z,18.90
2019-04-16T07:52:50.066Z,19.70
2019-04-16T07:55:36.148Z,20.60
2019-04-16T07:58:04.818Z,21.30
2019-04-16T08:00:33.618Z,21.30
2019-04-16T08:03:02.690Z,21.30
2019-04-16T08:05:31.304Z,22.00
2019-04-16T08:08:00.258Z,22.40
2019-04-16T08:10:29.890Z,22.40
2019-04-16T08:13:08.365Z,22.20
2019-04-16T08:15:37.205Z,22.20
2019-04-16T08:18:06.160Z,22.50
2019-04-16T08:20:35.101Z,23.10
2019-04-16T08:23:24.593Z,23.60
2019-04-16T08:26:02.667Z,23.50
2019-04-16T08:28:24.528Z,23.90
2019-04-16T08:30:53.209Z,24.30
2019-04-16T08:33:21.872Z,24.70
2019-04-16T08:35:50.274Z,24.60
2019-04-16T08:38:19.040Z,24.60
2019-04-16T08:40:47.719Z,25.50
2019-04-16T08:43:16.441Z,26.00
2019-04-16T08:45:47.300Z,26.10
2019-04-16T08:48:18.686Z,25.70
2019-04-16T08:50:49.289Z,25.30
2019-04-16T08:53:17.288Z,25.40
2019-04-16T08:55:46.221Z,25.30
2019-04-16T08:58:14.966Z,24.40
2019-04-16T09:00:46.534Z,23.00
2019-04-16T09:03:15.981Z,22.30
2019-04-16T09:05:44.643Z,21.40
2019-04-16T09:08:32.726Z,21.20
2019-04-16T09:11:04.330Z,21.20
2019-04-16T09:13:36.876Z,21.10
2019-04-16T09:16:05.832Z,22.00
2019-04-16T09:18:48.076Z,23.30
2019-04-16T09:21:16.754Z,24.00
2019-04-16T09:24:08.832Z,24.70
2019-04-16T09:26:43.714Z,25.50
2019-04-16T09:29:25.191Z,26.60
2019-04-16T09:32:10.898Z,27.30
2019-04-16T09:35:10.743Z,26.80
2019-04-16T09:37:44.616Z,27.30
2019-04-16T09:40:31.591Z,27.80
2019-04-16T09:43:01.699Z,27.80
2019-04-16T09:45:30.409Z,27.50
2019-04-16T09:48:02.349Z,26.90
2019-04-16T09:50:31.173Z,27.10
2019-04-16T09:53:01.853Z,27.20
2019-04-16T09:55:29.923Z,27.40
2019-04-16T09:58:05.876Z,27.50
2019-04-16T10:00:34.190Z,27.30
2019-04-16T10:03:37.226Z,27.80
2019-04-16T10:06:06.015Z,27.50
2019-04-16T10:08:35.264Z,27.60
2019-04-16T10:11:06.239Z,28.10
2019-04-16T10:13:36.282Z,28.00
2019-04-16T10:16:05.538Z,27.60
2019-04-16T10:18:35.124Z,27.30
2019-04-16T10:21:04.646Z,26.70
2019-04-16T10:24:08.116Z,26.30
2019-04-16T10:26:36.751Z,26.00
2019-04-16T10:29:08.457Z,25.40
2019-04-16T10:31:37.153Z,25.20
2019-04-16T10:34:05.786Z,25.20
2019-04-16T10:36:37.150Z,25.20
2019-04-16T10:39:14.990Z,25.60
2019-04-16T10:41:52.487Z,26.00
2019-04-16T10:44:56.044Z,26.50
2019-04-16T10:47:52.805Z,26.80
2019-04-16T10:50:48.844Z,27.00
2019-04-16T10:53:26.877Z,27.00
2019-04-16T10:56:12.131Z,26.80
2019-04-16T10:58:52.906Z,26.50
2019-04-16T11:01:34.654Z,27.40
2019-04-16T11:04:11.033Z,27.50
2019-04-16T11:06:41.813Z,27.80
2019-04-16T11:09:10.429Z,27.80
2019-04-16T11:11:39.219Z,28.80
2019-04-16T11:14:07.916Z,29.50
2019-04-16T11:16:38.664Z,29.00
2019-04-16T11:19:07.271Z,28.60
2019-04-16T11:21:36.029Z,28.90
2019-04-16T11:24:04.526Z,29.20
2019-04-16T11:26:33.497Z,29.20
2019-04-16T11:29:02.180Z,28.60
2019-04-16T11:31:30.569Z,27.90
2019-04-16T11:33:59.162Z,28.20
2019-04-16T11:36:30.827Z,28.10
2019-04-16T11:38:58.403Z,28.00
2019-04-16T11:41:26.712Z,27.80
2019-04-16T11:43:55.489Z,28.00
2019-04-16T11:46:24.724Z,27.80
2019-04-16T11:48:53.138Z,26.90
2019-04-16T11:51:23.408Z,26.00
2019-04-16T11:53:52.057Z,25.50
2019-04-16T11:56:22.473Z,25.20
2019-04-16T11:58:50.986Z,25.60
2019-04-16T12:01:38.111Z,25.70
2019-04-16T12:04:28.989Z,25.00
2019-04-16T12:07:32.266Z,24.80
2019-04-16T12:10:20.181Z,24.70
2019-04-16T12:13:08.406Z,24.10
2019-04-16T12:15:46.453Z,23.60
2019-04-16T12:18:21.618Z,23.60
2019-04-16T12:21:00.055Z,23.50
2019-04-16T12:23:43.363Z,23.10
2019-04-16T12:26:37.676Z,22.70
2019-04-16T12:29:24.648Z,22.30
2019-04-16T12:32:05.144Z,22.10
2019-04-16T12:34:55.874Z,21.80
2019-04-16T12:37:42.817Z,21.50
2019-04-16T12:40:24.686Z,21.10
2019-04-16T12:43:14.747Z,20.70
2019-04-16T12:45:56.817Z,20.70
2019-04-16T12:48:31.401Z,20.50
2019-04-16T12:51:25.526Z,20.60
2019-04-16T12:54:27.859Z,20.30
2019-04-16T12:57:14.952Z,20.30
2019-04-16T13:00:04.409Z,20.40
2019-04-16T13:02:44.845Z,20.30
2019-04-16T13:05:36.759Z,20.70
2019-04-16T13:08:31.270Z,20.50
2019-04-16T13:11:12.104Z,20.00
2019-04-16T13:14:15.501Z,19.90
2019-04-16T13:17:04.674Z,19.80
2019-04-16T13:19:43.935Z,19.80
2019-04-16T13:22:13.657Z,19.80
2019-04-16T13:24:49.300Z,19.60
2019-04-16T13:27:22.877Z,19.50
2019-04-16T13:29:51.671Z,19.40
2019-04-16T13:32:20.412Z,19.30
2019-04-16T13:34:48.939Z,19.20
2019-04-16T13:37:17.672Z,18.80
2019-04-16T13:40:07.830Z,18.80
2019-04-16T13:42:36.582Z,18.50
2019-04-16T13:45:30.722Z,18.30
2019-04-16T13:48:14.787Z,18.30
2019-04-16T13:50:51.918Z,17.90
2019-04-16T13:53:39.218Z,17.90
2019-04-16T13:56:34.772Z,18.00
2019-04-16T13:59:30.199Z,17.70
2019-04-16T14:02:18.645Z,17.80
2019-04-16T14:04:47.351Z,17.50
2019-04-16T14:07:16.125Z,17.40
2019-04-16T14:09:45.116Z,17.30
2019-04-16T14:12:14.128Z,17.20
2019-04-16T14:14:43.236Z,17.10
2019-04-16T14:17:17.654Z,16.80
2019-04-16T14:19:45.131Z,16.80
2019-04-16T14:22:13.992Z,16.70
2019-04-16T14:24:43.016Z,16.40
2019-04-16T14:27:14.017Z,16.30
2019-04-16T14:29:42.297Z,16.00
2019-04-16T14:32:10.848Z,15.90
2019-04-16T14:34:47.842Z,16.00
2019-04-16T14:37:17.292Z,16.20
2019-04-16T14:39:51.731Z,16.00
2019-04-16T14:42:22.254Z,15.90
2019-04-16T14:44:55.643Z,15.80
2019-04-16T14:47:24.211Z,15.40
2019-04-16T14:49:53.118Z,15.20
2019-04-16T14:52:21.870Z,15.10
2019-04-16T14:54:57.902Z,15.10
2019-04-16T14:57:28.772Z,15.20
2019-04-16T15:00:19.672Z,15.30
2019-04-16T15:02:53.698Z,15.30
2019-04-16T15:05:32.801Z,15.30
2019-04-16T15:08:23.454Z,15.30
2019-04-16T15:11:20.940Z,15.50
2019-04-16T15:14:11.851Z,15.50
2019-04-16T15:17:12.898Z,15.20
2019-04-16T15:19:47.590Z,15.10
2019-04-16T15:22:29.950Z,14.70
2019-04-16T15:25:06.687Z,14.60
2019-04-16T15:27:53.979Z,14.60
2019-04-16T15:30:51.231Z,14.70
2019-04-16T15:33:46.653Z,14.70
2019-04-16T15:36:19.618Z,14.60
2019-04-16T15:39:06.460Z,14.40
2019-04-16T15:42:09.977Z,14.40
2019-04-16T15:44:45.955Z,14.40
2019-04-16T15:47:32.820Z,14.30
2019-04-16T15:50:12.746Z,14.30
2019-04-16T15:53:10.328Z,14.30
2019-04-16T15:55:59.417Z,14.20
2019-04-16T15:58:47.731Z,14.10
2019-04-16T16:01:39.024Z,14.10
2019-04-16T16:04:10.186Z,13.90
2019-04-16T16:06:43.563Z,13.70
2019-04-16T16:09:30.780Z,13.90
2019-04-16T16:12:04.619Z,14.00
2019-04-16T16:14:35.633Z,14.00
2019-04-16T16:17:04.305Z,14.00
2019-04-16T16:19:33.361Z,14.00
2019-04-16T16:22:02.989Z,13.90
2019-04-16T16:24:35.779Z,13.60
2019-04-16T16:27:03.338Z,13.60
2019-04-16T16:29:31.999Z,13.60
2019-04-16T16:32:01.433Z,13.60
2019-04-16T16:34:30.247Z,13.50
2019-04-16T16:36:59.082Z,13.40
2019-04-16T16:39:27.614Z,13.40
2019-04-16T16:41:56.705Z,13.40
2019-04-16T16:44:25.344Z,13.50
2019-04-16T16:47:16.363Z,13.40
2019-04-16T16:49:45.293Z,13.30
2019-04-16T16:52:42.256Z,13.20
2019-04-16T16:55:23.403Z,13.20
2019-04-16T16:58:11.703Z,13.10
2019-04-16T17:01:19.805Z,13.10
2019-04-16T17:03:52.856Z,13.10
2019-04-16T17:06:22.231Z,13.10
2019-04-16T17:08:51.532Z,13.00
2019-04-16T17:11:20.620Z,13.00
2019-04-16T17:13:50.178Z,12.80
2019-04-16T17:16:18.736Z,12.80
2019-04-16T17:18:47.687Z,12.80
2019-04-16T17:21:16.328Z,12.70
2019-04-16T17:23:45.413Z,12.60
2019-04-16T17:26:16.085Z,12.70
2019-04-16T17:28:45.200Z,12.70
2019-04-16T17:31:14.080Z,12.70
2019-04-16T17:33:42.939Z,12.70
2019-04-16T17:36:11.539Z,12.60
2019-04-16T17:38:40.243Z,12.70
2019-04-16T17:41:11.521Z,12.80
2019-04-16T17:44:03.603Z,12.80
2019-04-16T17:46:54.903Z,12.70
2019-04-16T17:49:42.611Z,12.70
2019-04-16T17:52:39.595Z,12.70
2019-04-16T17:55:43.199Z,12.70
2019-04-16T17:58:36.389Z,12.70
2019-04-16T18:01:29.214Z,12.60
2019-04-16T18:04:10.878Z,12.50
2019-04-16T18:06:49.572Z,12.40
2019-04-16T18:09:28.040Z,12.40
2019-04-16T18:12:17.027Z,12.40
2019-04-16T18:15:09.503Z,12.40
2019-04-16T18:17:51.013Z,12.40
2019-04-16T18:20:36.717Z,12.30
2019-04-16T18:23:28.063Z,12.30
2019-04-16T18:26:22.092Z,12.20
2019-04-16T18:29:05.518Z,12.20
2019-04-16T18:32:09.147Z,12.10
2019-04-16T18:34:57.397Z,12.20
2019-04-16T18:37:36.619Z,12.20
2019-04-16T18:40:28.272Z,12.10
2019-04-16T18:43:03.569Z,12.10
2019-04-16T18:46:07.320Z,11.90
2019-04-16T18:48:37.145Z,11.70
2019-04-16T18:51:06.259Z,11.60
2019-04-16T18:53:35.499Z,11.50
2019-04-16T18:56:04.295Z,11.50
2019-04-16T18:58:33.443Z,11.30
2019-04-16T19:01:09.002Z,11.20
2019-04-16T19:03:39.448Z,11.10
2019-04-16T19:06:08.348Z,10.80
2019-04-16T19:08:42.143Z,10.90
2019-04-16T19:11:07.548Z,11.10
2019-04-16T19:13:35.953Z,11.30
2019-04-16T19:16:05.378Z,11.20
2019-04-16T19:18:34.281Z,11.40
2019-04-16T19:21:02.738Z,11.30
2019-04-16T19:23:31.850Z,11.30
2019-04-16T19:26:01.291Z,11.40
2019-04-16T19:28:30.118Z,11.40
2019-04-16T19:30:58.735Z,11.30
2019-04-16T19:33:33.407Z,11.30
2019-04-16T19:35:58.503Z,11.20
2019-04-16T19:38:27.201Z,11.10
2019-04-16T19:40:55.867Z,11.00
2019-04-16T19:43:27.968Z,10.80
2019-04-16T19:45:55.101Z,10.70
2019-04-16T19:48:35.338Z,10.90
2019-04-16T19:50:54.240Z,10.80
2019-04-16T19:53:22.750Z,10.70
2019-04-16T19:55:51.516Z,10.70
2019-04-16T19:58:20.653Z,10.80
2019-04-16T20:00:49.192Z,10.80
2019-04-16T20:03:18.044Z,10.80
2019-04-16T20:05:48.200Z,10.60
2019-04-16T20:08:16.945Z,10.50
2019-04-16T20:10:48.663Z,10.50
2019-04-16T20:13:16.181Z,10.70
2019-04-16T20:15:44.901Z,10.70
2019-04-16T20:18:13.617Z,10.80
2019-04-16T20:20:42.183Z,10.80
2019-04-16T20:23:10.730Z,10.80
2019-04-16T20:25:39.313Z,10.70
2019-04-16T20:28:09.555Z,10.70
2019-04-16T20:30:38.819Z,10.70
2019-04-16T20:33:07.798Z,10.70
2019-04-16T20:35:36.506Z,10.60
2019-04-16T20:38:04.891Z,10.60
2019-04-16T20:40:33.547Z,10.60
2019-04-16T20:43:02.569Z,10.70
2019-04-16T20:45:31.006Z,10.70
2019-04-16T20:47:59.678Z,10.70
2019-04-16T20:50:28.307Z,10.60
2019-04-16T20:52:57.331Z,10.60
2019-04-16T20:55:26.206Z,10.50
2019-04-16T20:57:58.679Z,10.50
2019-04-16T21:00:28.390Z,10.40
2019-04-16T21:02:56.943Z,10.40
2019-04-16T21:05:26.270Z,10.30
2019-04-16T21:07:57.068Z,10.30
2019-04-16T21:10:25.826Z,10.40
2019-04-16T21:12:55.658Z,10.50
2019-04-16T21:15:27.483Z,10.40
2019-04-16T21:17:55.930Z,10.40
2019-04-16T21:20:24.816Z,10.40
2019-04-16T21:22:53.695Z,10.30
2019-04-16T21:25:23.902Z,10.20
2019-04-16T21:28:10.739Z,10.20
2019-04-16T21:30:42.850Z,10.20
2019-04-16T21:33:17.709Z,10.30
2019-04-16T21:35:48.585Z,10.30
2019-04-16T21:38:46.146Z,10.40
2019-04-16T21:41:14.534Z,10.40
2019-04-16T21:43:43.215Z,10.30
2019-04-16T21:46:11.888Z,10.30
2019-04-16T21:48:40.288Z,10.30
2019-04-16T21:51:08.942Z,10.20
2019-04-16T21:53:37.373Z,10.20
2019-04-16T21:56:08.257Z,10.10
2019-04-16T21:58:36.590Z,10.00
2019-04-16T22:01:23.213Z,10.00
2019-04-16T22:04:01.749Z,10.00
2019-04-16T22:06:30.227Z,10.00
2019-04-16T22:09:03.295Z,10.00
2019-04-16T22:11:31.904Z,9.90
2019-04-16T22:14:00.241Z,9.90
2019-04-16T22:16:30.591Z,9.80
2019-04-16T22:18:59.271Z,9.80
2019-04-16T22:21:27.884Z,9.80
2019-04-16T22:23:56.369Z,9.70
2019-04-16T22:26:24.675Z,9.70
2019-04-16T22:28:53.649Z,9.70
2019-04-16T22:31:23.948Z,9.70
2019-04-16T22:33:52.611Z,9.70
2019-04-16T22:36:21.641Z,9.60
2019-04-16T22:38:57.160Z,9.60
2019-04-16T22:41:33.853Z,9.70
2019-04-16T22:44:13.093Z,9.70
2019-04-16T22:46:50.427Z,9.60
2019-04-16T22:49:22.295Z,9.60
2019-04-16T22:51:49.508Z,9.60
2019-04-16T22:54:20.834Z,9.50
2019-04-16T22:57:01.992Z,9.40
2019-04-16T22:59:30.293Z,9.50
2019-04-16T23:01:59.209Z,9.40
2019-04-16T23:04:27.792Z,9.40
2019-04-16T23:06:56.462Z,9.40
2019-04-16T23:09:28.725Z,9.40
2019-04-16T23:11:57.272Z,9.30
2019-04-16T23:14:25.700Z,9.30
2019-04-16T23:16:54.178Z,9.30
2019-04-16T23:19:23.313Z,9.30
2019-04-16T23:21:52.482Z,9.20
2019-04-16T23:24:23.378Z,9.20
2019-04-16T23:26:51.810Z,9.30
2019-04-16T23:29:20.602Z,9.20
2019-04-16T23:31:49.221Z,9.20
2019-04-16T23:34:17.862Z,9.20
2019-04-16T23:36:48.665Z,9.20
2019-04-16T23:39:17.479Z,9.20
2019-04-16T23:41:48.167Z,9.30
2019-04-16T23:44:42.245Z,9.20
2019-04-16T23:47:34.808Z,9.20
2019-04-16T23:50:23.844Z,9.10
2019-04-16T23:52:58.384Z,9.00
2019-04-16T23:55:37.725Z,9.00
2019-04-16T23:58:13.505Z,8.90
